Time;durP1;ratioP1;P1;durP2;ratioP2;P2;SDS_P1;SDS_P2;PMS_P1;PMS_P2;Temp;Humidity;BMP_temperature;BMP_pressure;BME280_temperature;BME280_humidity;BME280_pressure;Samples;Min_cycle;Max_cycle;Signal;HPM_P1;HPM_P2
2021/10/23 00:02:21;;;;;;;1.85;1.00;;;4.10;99.90;;;;;;5056377;28;20049;-79
2021/10/23 00:04:48;;;;;;;4.32;1.30;;;4.00;99.90;;;;;;5054872;28;20422;-79
2021/10/23 00:07:15;;;;;;;2.35;1.30;;;3.90;99.90;;;;;;5054350;28;20083;-79
2021/10/23 00:09:42;;;;;;;1.50;1.13;;;3.80;99.90;;;;;;5055143;28;20092;-79
2021/10/23 00:12:09;;;;;;;1.20;1.08;;;3.70;99.90;;;;;;5055695;28;20136;-79
2021/10/23 00:14:35;;;;;;;1.98;1.15;;;3.70;99.90;;;;;;5054755;28;20556;-79
2021/10/23 00:17:02;;;;;;;3.10;1.60;;;3.60;99.90;;;;;;5056035;28;20494;-79
2021/10/23 00:19:29;;;;;;;1.60;1.35;;;3.60;99.90;;;;;;5054598;28;20510;-78
2021/10/23 00:21:56;;;;;;;4.32;1.40;;;3.50;99.90;;;;;;5056513;28;20084;-79
2021/10/23 00:24:23;;;;;;;4.97;1.55;;;3.50;99.90;;;;;;5055960;28;20137;-79
2021/10/23 00:26:50;;;;;;;5.50;1.45;;;3.40;99.90;;;;;;5055785;28;20128;-79
2021/10/23 00:29:16;;;;;;;5.93;1.45;;;3.40;99.90;;;;;;5054119;28;20494;-79
2021/10/23 00:31:43;;;;;;;7.13;2.05;;;3.40;99.90;;;;;;5055962;28;20136;-79
2021/10/23 00:34:10;;;;;;;5.85;2.00;;;3.30;99.90;;;;;;5054791;28;20585;-78
2021/10/23 00:36:36;;;;;;;6.63;2.00;;;3.30;99.90;;;;;;5057980;28;20576;-79
2021/10/23 00:39:03;;;;;;;5.05;1.50;;;3.20;99.90;;;;;;5058450;28;20136;-79
2021/10/23 00:41:30;;;;;;;2.15;1.70;;;3.20;99.90;;;;;;5059829;28;20056;-79
2021/10/23 00:43:56;;;;;;;4.25;1.30;;;3.20;99.90;;;;;;5059763;28;20136;-79
2021/10/23 00:46:23;;;;;;;6.88;2.10;;;3.10;99.90;;;;;;5058356;28;20132;-79
2021/10/23 00:48:50;;;;;;;6.47;1.63;;;3.10;99.90;;;;;;5058225;28;20056;-77
2021/10/23 00:51:17;;;;;;;4.97;1.30;;;3.00;99.90;;;;;;5059627;28;20124;-78
2021/10/23 00:53:45;;;;;;;5.55;1.50;;;3.00;99.90;;;;;;5059480;28;20405;-77
2021/10/23 00:56:15;;;;;;;4.43;1.80;;;3.00;99.90;;;;;;5057721;28;20431;-79
2021/10/23 00:58:44;;;;;;;5.03;1.83;;;3.00;99.90;;;;;;5059384;28;20131;-79
2021/10/23 01:01:11;;;;;;;3.38;1.75;;;3.00;99.90;;;;;;5058028;28;20076;-79
2021/10/23 01:03:39;;;;;;;2.83;1.58;;;2.90;99.90;;;;;;5057819;28;20053;-78
2021/10/23 01:06:07;;;;;;;2.55;1.50;;;2.80;99.90;;;;;;5057482;28;20084;-79
2021/10/23 01:08:33;;;;;;;2.25;1.38;;;2.70;99.90;;;;;;5058978;28;20140;-79
2021/10/23 01:11:01;;;;;;;2.70;1.35;;;2.60;99.90;;;;;;5057882;28;20405;-78
2021/10/23 01:13:28;;;;;;;7.65;1.70;;;2.40;99.90;;;;;;5058187;28;20056;-79
2021/10/23 01:15:54;;;;;;;5.93;1.50;;;2.30;99.90;;;;;;5058772;28;20069;-78
2021/10/23 01:18:21;;;;;;;5.53;1.85;;;2.40;99.90;;;;;;5058867;28;20084;-79
2021/10/23 01:20:48;;;;;;;2.58;1.40;;;2.40;99.90;;;;;;5057585;28;20063;-78
2021/10/23 01:23:14;;;;;;;4.88;1.63;;;2.40;99.90;;;;;;5056879;28;20049;-78
2021/10/23 01:25:41;;;;;;;7.45;1.90;;;2.40;99.90;;;;;;5058187;28;20072;-78
2021/10/23 01:28:08;;;;;;;6.32;1.73;;;2.40;99.90;;;;;;5058583;28;20487;-78
2021/10/23 01:30:34;;;;;;;6.25;1.52;;;2.40;99.90;;;;;;5058289;28;20052;-78
2021/10/23 01:33:02;;;;;;;4.10;1.60;;;2.30;99.90;;;;;;5056794;28;20132;-78
2021/10/23 01:35:29;;;;;;;7.03;1.48;;;2.20;99.90;;;;;;5057367;28;20144;-79
2021/10/23 01:37:56;;;;;;;6.10;1.48;;;2.10;99.90;;;;;;5057180;28;20053;-79
2021/10/23 01:40:33;;;;;;;7.03;1.75;;;2.10;99.90;;;;;;5058675;28;20128;-78
2021/10/23 01:43:02;;;;;;;4.50;1.60;;;2.20;99.90;;;;;;5056921;28;20080;-79
2021/10/23 01:45:28;;;;;;;7.50;1.85;;;2.00;99.90;;;;;;5056902;28;20049;-79
2021/10/23 01:47:55;;;;;;;7.15;1.95;;;2.00;99.90;;;;;;5058430;28;20564;-79
2021/10/23 01:50:24;;;;;;;4.15;1.40;;;1.90;99.90;;;;;;5058812;28;20107;-79
2021/10/23 01:52:52;;;;;;;2.25;1.20;;;1.90;99.90;;;;;;5058054;28;20148;-78
2021/10/23 01:55:19;;;;;;;7.30;1.58;;;1.70;99.90;;;;;;5057213;28;20109;-77
2021/10/23 01:57:46;;;;;;;6.93;2.22;;;1.60;99.90;;;;;;5057194;28;20074;-77
2021/10/23 02:00:15;;;;;;;3.08;1.65;;;1.60;99.90;;;;;;5056964;28;20132;-79
2021/10/23 02:02:42;;;;;;;11.38;2.22;;;1.60;99.90;;;;;;5058346;28;20053;-77
2021/10/23 02:05:09;;;;;;;2.78;1.92;;;1.60;99.90;;;;;;5056919;28;20805;-78
2021/10/23 02:07:36;;;;;;;4.35;1.67;;;1.50;99.90;;;;;;5058581;28;20049;-78
2021/10/23 02:10:05;;;;;;;2.35;1.77;;;1.50;99.90;;;;;;5057007;28;20049;-79
2021/10/23 02:12:32;;;;;;;3.80;1.95;;;1.50;99.90;;;;;;5056929;28;20505;-79
2021/10/23 02:14:59;;;;;;;2.25;1.70;;;1.50;99.90;;;;;;5057255;28;20128;-78
2021/10/23 02:17:26;;;;;;;4.18;1.88;;;1.40;99.90;;;;;;5058578;28;20045;-79
2021/10/23 02:19:52;;;;;;;2.70;1.83;;;1.40;99.90;;;;;;5056981;28;20045;-79
2021/10/23 02:22:19;;;;;;;5.32;1.92;;;1.50;99.90;;;;;;5058657;28;20053;-79
2021/10/23 02:24:46;;;;;;;3.42;1.80;;;1.50;99.90;;;;;;5057200;28;20571;-79
2021/10/23 02:27:13;;;;;;;6.55;2.30;;;1.60;99.90;;;;;;5057047;28;20565;-79
2021/10/23 02:29:39;;;;;;;3.85;2.67;;;1.60;99.90;;;;;;5057168;28;20076;-79
2021/10/23 02:32:06;;;;;;;5.20;2.63;;;1.70;99.90;;;;;;5058602;28;20084;-79
2021/10/23 02:34:33;;;;;;;9.05;2.92;;;1.80;99.90;;;;;;5059252;28;20080;-79
2021/10/23 02:36:59;;;;;;;11.70;3.33;;;1.80;99.90;;;;;;5057198;28;20561;-79
2021/10/23 02:39:26;;;;;;;6.78;3.45;;;1.80;99.90;;;;;;5057596;28;20573;-79
2021/10/23 02:41:53;;;;;;;4.50;3.08;;;1.80;99.90;;;;;;5059275;28;20055;-79
2021/10/23 02:44:19;;;;;;;4.85;2.67;;;1.80;99.90;;;;;;5058964;28;20136;-79
2021/10/23 02:46:46;;;;;;;6.97;2.80;;;1.80;99.90;;;;;;5057683;28;20131;-79
2021/10/23 02:49:13;;;;;;;3.33;2.47;;;1.90;99.90;;;;;;5057918;28;20081;-79
2021/10/23 02:51:40;;;;;;;2.85;2.65;;;1.90;99.90;;;;;;5059555;28;20132;-79
2021/10/23 02:54:06;;;;;;;3.38;2.65;;;1.80;99.90;;;;;;5057707;28;20124;-79
2021/10/23 02:56:33;;;;;;;4.78;2.40;;;1.80;99.90;;;;;;5059690;28;20108;-78
2021/10/23 02:59:00;;;;;;;4.28;2.47;;;1.80;99.90;;;;;;5056756;28;20204;-79
2021/10/23 03:01:27;;;;;;;6.40;2.83;;;1.80;99.90;;;;;;5059880;28;20052;-79
2021/10/23 03:03:54;;;;;;;5.10;2.28;;;1.80;99.90;;;;;;5059835;28;20052;-79
2021/10/23 03:06:20;;;;;;;4.05;2.45;;;1.70;99.90;;;;;;5059876;28;20131;-79
2021/10/23 03:08:47;;;;;;;4.20;2.40;;;1.70;99.90;;;;;;5058595;28;20055;-79
2021/10/23 03:11:14;;;;;;;2.45;1.67;;;1.60;99.90;;;;;;5058075;28;20088;-78
2021/10/23 03:13:41;;;;;;;1.90;1.80;;;1.50;99.90;;;;;;5058671;28;20076;-79
2021/10/23 03:16:10;;;;;;;4.72;2.28;;;1.50;99.90;;;;;;5058463;28;20068;-79
2021/10/23 03:18:37;;;;;;;4.18;2.42;;;1.40;99.90;;;;;;5060424;28;20083;-78
2021/10/23 03:21:04;;;;;;;3.13;2.33;;;1.30;99.90;;;;;;5060795;28;20501;-79
2021/10/23 03:23:31;;;;;;;2.58;1.90;;;1.30;99.90;;;;;;5060251;28;20476;-79
2021/10/23 03:25:58;;;;;;;2.85;1.95;;;1.20;99.90;;;;;;5060631;28;20109;-79
2021/10/23 03:28:24;;;;;;;7.88;2.33;;;1.30;99.90;;;;;;5059923;28;20087;-79
2021/10/23 03:30:51;;;;;;;3.70;2.47;;;1.20;99.90;;;;;;5056893;28;20056;-78
2021/10/23 03:33:18;;;;;;;5.25;2.15;;;1.20;99.90;;;;;;5054382;28;20101;-79
2021/10/23 03:35:46;;;;;;;6.00;2.20;;;1.20;99.90;;;;;;5055768;28;20049;-77
2021/10/23 03:38:12;;;;;;;3.05;1.98;;;1.20;99.90;;;;;;5055885;28;20081;-78
2021/10/23 03:40:39;;;;;;;3.10;2.03;;;1.20;99.90;;;;;;5053979;28;20045;-78
2021/10/23 03:43:06;;;;;;;4.40;2.42;;;1.10;99.90;;;;;;5056251;28;20135;-78
2021/10/23 03:45:33;;;;;;;10.80;2.85;;;1.10;99.90;;;;;;5054130;28;20084;-79
2021/10/23 03:47:59;;;;;;;6.18;2.30;;;1.20;99.90;;;;;;5055322;28;20128;-79
2021/10/23 03:50:26;;;;;;;6.90;2.78;;;1.20;99.90;;;;;;5054147;28;20525;-78
2021/10/23 03:52:54;;;;;;;3.50;2.63;;;1.20;99.90;;;;;;5054008;28;20052;-78
2021/10/23 03:55:21;;;;;;;5.88;2.40;;;1.10;99.90;;;;;;5054287;28;20075;-78
2021/10/23 03:57:48;;;;;;;5.22;2.92;;;1.10;99.90;;;;;;5055469;28;20047;-78
2021/10/23 04:00:15;;;;;;;8.15;3.53;;;1.00;99.90;;;;;;5055561;28;20564;-77
2021/10/23 04:02:41;;;;;;;7.28;2.58;;;1.00;99.90;;;;;;5055395;28;20055;-78
2021/10/23 04:05:09;;;;;;;11.75;2.63;;;1.00;99.90;;;;;;5055611;28;20421;-78
2021/10/23 04:07:35;;;;;;;7.65;2.10;;;1.00;99.90;;;;;;5053781;28;20108;-79
2021/10/23 04:10:04;;;;;;;11.70;2.97;;;1.00;99.90;;;;;;5058651;28;20456;-77
2021/10/23 04:12:31;;;;;;;2.45;1.88;;;0.90;99.90;;;;;;5060770;28;20045;-78
2021/10/23 04:15:00;;;;;;;8.70;2.85;;;0.80;99.90;;;;;;5060655;28;20045;-78
2021/10/23 04:17:27;;;;;;;19.42;8.48;;;0.70;99.90;;;;;;5060775;28;20076;-79
2021/10/23 04:19:54;;;;;;;9.52;5.60;;;0.70;99.90;;;;;;5061329;28;20695;-77
2021/10/23 04:22:21;;;;;;;4.05;3.17;;;0.90;99.90;;;;;;5060171;28;20619;-78
2021/10/23 04:24:48;;;;;;;4.95;2.83;;;0.80;99.90;;;;;;5060534;28;20052;-78
2021/10/23 04:27:15;;;;;;;6.25;2.55;;;0.80;99.90;;;;;;5062372;28;20045;-78
2021/10/23 04:29:42;;;;;;;20.52;2.72;;;0.70;99.90;;;;;;5060804;28;20484;-78
2021/10/23 04:32:09;;;;;;;4.82;2.05;;;0.70;99.90;;;;;;5060274;28;20107;-78
2021/10/23 04:34:36;;;;;;;3.72;2.13;;;0.70;99.90;;;;;;5062334;28;20080;-79
2021/10/23 04:37:04;;;;;;;3.95;1.70;;;0.70;99.90;;;;;;5060004;28;20087;-78
2021/10/23 04:39:30;;;;;;;4.97;1.75;;;0.70;99.90;;;;;;5060338;28;20140;-79
2021/10/23 04:41:58;;;;;;;7.32;2.65;;;0.70;99.90;;;;;;5061751;28;20084;-78
2021/10/23 04:44:25;;;;;;;6.30;2.30;;;0.60;99.90;;;;;;5060265;28;20135;-78
2021/10/23 04:46:52;;;;;;;6.07;3.00;;;0.70;99.90;;;;;;5061934;28;20159;-79
2021/10/23 04:49:19;;;;;;;5.55;2.58;;;0.70;99.90;;;;;;5060425;28;20144;-78
2021/10/23 04:51:46;;;;;;;7.18;2.60;;;0.80;99.90;;;;;;5061558;28;20131;-78
2021/10/23 04:54:12;;;;;;;5.05;2.88;;;0.80;99.90;;;;;;5060043;28;20107;-78
2021/10/23 04:56:39;;;;;;;5.35;2.60;;;0.80;99.90;;;;;;5062092;28;20059;-78
2021/10/23 04:59:07;;;;;;;3.90;3.35;;;0.70;99.90;;;;;;5061466;28;20486;-79
2021/10/23 05:01:34;;;;;;;7.30;3.70;;;0.70;99.90;;;;;;5061444;28;20136;-79
2021/10/23 05:04:01;;;;;;;15.40;4.60;;;0.90;99.90;;;;;;5061959;28;20049;-79
2021/10/23 05:06:27;;;;;;;19.02;4.70;;;0.80;99.90;;;;;;5062473;28;20069;-79
2021/10/23 05:08:54;;;;;;;7.43;4.00;;;0.90;99.90;;;;;;5061541;28;20153;-78
2021/10/23 05:11:21;;;;;;;10.18;4.57;;;0.90;99.90;;;;;;5060344;28;20413;-78
2021/10/23 05:13:47;;;;;;;6.75;3.75;;;1.00;99.90;;;;;;5060020;28;20128;-78
2021/10/23 05:16:14;;;;;;;10.65;4.13;;;1.00;99.90;;;;;;5059959;28;20103;-78
2021/10/23 05:18:41;;;;;;;8.82;3.90;;;0.90;99.90;;;;;;5060097;28;20048;-78
2021/10/23 05:21:08;;;;;;;6.32;3.88;;;0.90;99.90;;;;;;5058679;28;20076;-78
2021/10/23 05:23:35;;;;;;;11.85;4.28;;;0.80;99.90;;;;;;5058156;28;20128;-78
2021/10/23 05:26:01;;;;;;;15.43;4.57;;;0.90;99.90;;;;;;5058330;28;20136;-78
2021/10/23 05:28:28;;;;;;;15.85;4.15;;;0.90;99.90;;;;;;5057887;28;20136;-78
2021/10/23 05:30:55;;;;;;;11.38;3.72;;;0.90;99.90;;;;;;5058041;28;20079;-78
2021/10/23 05:33:22;;;;;;;7.18;3.47;;;0.90;99.90;;;;;;5058256;28;20458;-78
2021/10/23 05:35:49;;;;;;;9.00;3.22;;;0.90;99.90;;;;;;5056457;28;20135;-78
2021/10/23 05:38:16;;;;;;;6.13;3.08;;;1.00;99.90;;;;;;5057773;28;20045;-78
2021/10/23 05:40:43;;;;;;;5.25;3.83;;;1.00;99.90;;;;;;5056366;28;20053;-78
2021/10/23 05:43:09;;;;;;;7.32;3.47;;;1.10;99.90;;;;;;5058055;28;20083;-79
2021/10/23 05:45:36;;;;;;;6.85;3.20;;;1.10;99.90;;;;;;5057781;28;20577;-79
2021/10/23 05:48:03;;;;;;;9.95;4.45;;;1.20;99.90;;;;;;5057960;28;20136;-78
2021/10/23 05:50:30;;;;;;;14.15;3.92;;;1.30;99.90;;;;;;5056459;28;20244;-79
2021/10/23 05:52:57;;;;;;;8.32;3.67;;;1.40;99.90;;;;;;5058173;28;20589;-78
2021/10/23 05:55:24;;;;;;;15.43;4.97;;;1.40;99.90;;;;;;5058750;28;20119;-79
2021/10/23 05:57:50;;;;;;;11.82;4.72;;;1.50;99.90;;;;;;5058476;28;20136;-79
2021/10/23 06:00:17;;;;;;;14.05;5.35;;;1.50;99.90;;;;;;5057005;28;20049;-78
2021/10/23 06:02:45;;;;;;;12.18;4.72;;;1.50;99.90;;;;;;5058133;28;20498;-78
2021/10/23 06:05:12;;;;;;;15.75;6.78;;;1.60;99.90;;;;;;5057981;28;20048;-78
2021/10/23 06:07:41;;;;;;;11.52;5.60;;;1.50;99.90;;;;;;5056807;28;20107;-78
2021/10/23 06:10:10;;;;;;;19.42;7.63;;;1.60;99.90;;;;;;5056469;28;20076;-79
2021/10/23 06:12:40;;;;;;;13.32;6.95;;;1.60;99.90;;;;;;5058143;28;20045;-79
2021/10/23 06:15:08;;;;;;;39.03;9.75;;;1.60;99.90;;;;;;5058268;28;20407;-78
2021/10/23 06:17:35;;;;;;;28.38;7.13;;;1.60;99.90;;;;;;5058678;28;20069;-79
2021/10/23 06:20:03;;;;;;;24.73;8.98;;;1.60;99.90;;;;;;5058393;28;20076;-78
2021/10/23 06:22:30;;;;;;;31.17;12.85;;;1.60;99.90;;;;;;5056812;28;20060;-79
2021/10/23 06:24:57;;;;;;;60.30;23.95;;;1.70;99.90;;;;;;5058392;28;20096;-78
2021/10/23 06:27:24;;;;;;;74.35;20.83;;;1.70;99.90;;;;;;5057002;28;20080;-79
2021/10/23 06:29:51;;;;;;;41.70;10.80;;;1.70;99.90;;;;;;5056384;28;20048;-79
2021/10/23 06:32:17;;;;;;;25.00;8.20;;;1.60;99.90;;;;;;5058643;28;20458;-78
2021/10/23 06:34:44;;;;;;;18.48;8.95;;;1.60;99.90;;;;;;5058445;28;20088;-79
2021/10/23 06:37:11;;;;;;;30.92;9.80;;;1.70;99.90;;;;;;5058019;28;20084;-79
2021/10/23 06:39:38;;;;;;;12.25;6.18;;;1.70;99.90;;;;;;5058427;28;20131;-79
2021/10/23 06:42:05;;;;;;;9.65;6.60;;;1.70;99.90;;;;;;5057325;28;20053;-79
2021/10/23 06:44:32;;;;;;;10.07;6.07;;;1.70;99.90;;;;;;5057470;28;20124;-79
2021/10/23 06:46:59;;;;;;;10.50;5.90;;;1.80;99.90;;;;;;5059060;28;20116;-79
2021/10/23 06:49:25;;;;;;;16.75;6.65;;;1.70;99.90;;;;;;5058703;28;20104;-79
2021/10/23 06:51:52;;;;;;;10.93;6.25;;;1.70;99.90;;;;;;5057263;28;20525;-79
2021/10/23 06:54:19;;;;;;;8.23;5.28;;;1.70;99.90;;;;;;5058798;28;20140;-79
2021/10/23 06:56:46;;;;;;;12.27;6.20;;;1.70;99.90;;;;;;5058821;28;20516;-79
2021/10/23 06:59:12;;;;;;;12.50;6.43;;;1.80;99.90;;;;;;5059171;28;20135;-79
2021/10/23 07:01:39;;;;;;;10.05;6.07;;;1.80;99.90;;;;;;5057797;28;20498;-79
2021/10/23 07:04:06;;;;;;;11.52;7.13;;;1.80;99.90;;;;;;5058810;28;20045;-79
2021/10/23 07:06:33;;;;;;;8.80;5.97;;;1.80;99.90;;;;;;5058374;28;20538;-79
2021/10/23 07:08:59;;;;;;;15.55;8.77;;;1.80;99.90;;;;;;5059902;28;20137;-79
2021/10/23 07:11:26;;;;;;;58.08;24.50;;;1.80;99.90;;;;;;5058694;28;20520;-79
2021/10/23 07:13:53;;;;;;;52.83;25.98;;;1.90;99.90;;;;;;5058731;28;20506;-79
2021/10/23 07:16:20;;;;;;;50.13;27.30;;;1.90;99.90;;;;;;5058331;28;20073;-79
2021/10/23 07:18:46;;;;;;;72.38;30.27;;;1.80;99.90;;;;;;5059457;28;20075;-80
2021/10/23 07:21:13;;;;;;;53.47;22.35;;;2.10;99.90;;;;;;5058865;28;20131;-79
2021/10/23 07:23:40;;;;;;;50.95;33.33;;;2.20;99.90;;;;;;5059105;28;20057;-79
2021/10/23 07:26:07;;;;;;;68.20;25.85;;;2.30;99.90;;;;;;5058814;28;20140;-79
2021/10/23 07:28:33;;;;;;;54.47;32.65;;;2.50;99.90;;;;;;5058880;28;20049;-79
2021/10/23 07:31:01;;;;;;;62.65;26.77;;;2.50;99.90;;;;;;5061554;28;20510;-79
2021/10/23 07:33:27;;;;;;;46.20;17.25;;;2.40;99.90;;;;;;5060978;28;20056;-79
2021/10/23 07:35:58;;;;;;;49.22;18.90;;;2.50;99.90;;;;;;5056440;28;20095;-79
2021/10/23 07:38:24;;;;;;;87.80;39.72;;;2.50;99.90;;;;;;5054238;28;20052;-79
2021/10/23 07:40:51;;;;;;;131.32;70.95;;;2.60;99.90;;;;;;5055712;28;20059;-79
2021/10/23 07:43:18;;;;;;;158.82;113.47;;;2.80;99.90;;;;;;5054153;28;20128;-79
2021/10/23 07:45:47;;;;;;;55.53;19.95;;;2.80;99.90;;;;;;5054218;28;20136;-79
2021/10/23 07:48:18;;;;;;;56.00;21.33;;;2.90;99.90;;;;;;5067170;28;20489;-79
2021/10/23 07:50:49;;;;;;;54.88;25.75;;;3.00;99.90;;;;;;5075056;28;20162;-81
2021/10/23 07:53:18;;;;;;;186.32;75.65;;;3.00;99.90;;;;;;5074663;28;20136;-80
2021/10/23 07:55:45;;;;;;;483.45;158.18;;;3.30;99.90;;;;;;5074917;28;20068;-80
2021/10/23 07:58:12;;;;;;;1999.90;459.17;;;3.60;99.90;;;;;;5076006;28;20131;-80
2021/10/23 08:00:39;;;;;;;1999.90;591.78;;;4.20;99.90;;;;;;5076154;28;20474;-80
2021/10/23 08:03:06;;;;;;;421.52;87.75;;;5.20;99.90;;;;;;5074205;28;20052;-80
2021/10/23 08:05:35;;;;;;;1999.90;425.85;;;5.50;99.90;;;;;;5076717;28;20147;-81
2021/10/23 08:08:03;;;;;;;1129.47;196.02;;;6.50;99.90;;;;;;5076679;28;20072;-80
2021/10/23 08:10:31;;;;;;;23.95;13.00;;;7.50;99.90;;;;;;5075801;28;20057;-80
2021/10/23 08:13:00;;;;;;;19.85;8.38;;;7.10;99.90;;;;;;5074092;28;20071;-80
2021/10/23 08:15:27;;;;;;;18.23;7.05;;;7.40;99.90;;;;;;5074111;28;20082;-80
2021/10/23 08:17:55;;;;;;;12.73;6.05;;;7.80;99.90;;;;;;5075630;28;20083;-81
2021/10/23 08:20:26;;;;;;;13.10;4.75;;;8.70;99.90;;;;;;5074028;28;20040;-81
2021/10/23 08:22:54;;;;;;;28.45;14.27;;;8.80;99.90;;;;;;5074677;28;20639;-81
2021/10/23 08:25:21;;;;;;;8.27;3.38;;;9.40;99.90;;;;;;5074308;28;20135;-81
2021/10/23 08:27:48;;;;;;;10.27;3.95;;;9.20;99.90;;;;;;5078114;28;20051;-81
2021/10/23 08:30:17;;;;;;;43.92;31.42;;;9.00;99.90;;;;;;5076493;28;20084;-80
2021/10/23 08:32:46;;;;;;;21.98;6.05;;;8.40;99.90;;;;;;5074378;28;20404;-81
2021/10/23 08:35:14;;;;;;;66.75;40.90;;;8.40;99.90;;;;;;5075696;28;20067;-81
2021/10/23 08:37:41;;;;;;;24.15;10.93;;;8.70;99.90;;;;;;5075758;28;20071;-81
2021/10/23 08:40:10;;;;;;;95.47;65.07;;;9.30;99.90;;;;;;5074037;28;20053;-81
2021/10/23 08:42:36;;;;;;;28.23;12.18;;;9.30;99.90;;;;;;5076096;28;20108;-80
2021/10/23 08:45:09;;;;;;;159.07;94.30;;;8.90;99.90;;;;;;5074906;28;20114;-81
2021/10/23 08:47:40;;;;;;;73.25;36.25;;;9.20;99.90;;;;;;5074135;28;20127;-81
2021/10/23 08:50:10;;;;;;;15.55;8.65;;;9.70;99.90;;;;;;5074478;28;20473;-81
2021/10/23 08:52:37;;;;;;;40.95;29.02;;;10.40;99.90;;;;;;5073714;28;20075;-82
2021/10/23 08:55:05;;;;;;;11.55;2.90;;;11.90;99.90;;;;;;5073939;28;20132;-82
2021/10/23 08:57:32;;;;;;;25.13;17.90;;;11.70;99.90;;;;;;5076614;28;20139;-82
2021/10/23 08:59:59;;;;;;;83.72;61.55;;;12.70;99.90;;;;;;5076976;28;20486;-82
2021/10/23 09:02:26;;;;;;;19.35;7.13;;;14.00;99.90;;;;;;5076848;28;20194;-82
2021/10/23 09:04:55;;;;;;;12.57;5.82;;;13.90;99.90;;;;;;5076912;28;20060;-82
2021/10/23 09:07:23;;;;;;;12.63;2.33;;;14.60;99.90;;;;;;5077683;28;20052;-82
2021/10/23 09:09:56;;;;;;;9.63;3.38;;;16.50;99.90;;;;;;5076772;28;20144;-82
2021/10/23 09:12:25;;;;;;;8.38;2.58;;;17.60;93.40;;;;;;5076451;28;20048;-82
2021/10/23 09:15:05;;;;;;;28.70;4.28;;;17.90;92.00;;;;;;5077606;28;20135;-79
2021/10/23 09:17:33;;;;;;;16.85;5.07;;;18.10;91.60;;;;;;5077420;28;20072;-81
2021/10/23 09:20:11;;;;;;;10.43;2.80;;;16.40;93.80;;;;;;5077573;28;20135;-80
2021/10/23 09:22:43;;;;;;;12.10;2.65;;;17.50;92.80;;;;;;5076733;28;20383;-80
2021/10/23 09:25:14;;;;;;;9.52;1.90;;;18.80;90.70;;;;;;5076507;28;20131;-80
2021/10/23 09:27:59;;;;;;;6.78;1.60;;;18.50;91.20;;;;;;5076140;28;20052;-80
2021/10/23 09:30:32;;;;;;;8.02;2.25;;;18.00;91.50;;;;;;5076691;28;20459;-79
2021/10/23 09:33:03;;;;;;;6.82;2.17;;;18.40;90.60;;;;;;5076873;28;20087;-80
2021/10/23 09:35:31;;;;;;;9.38;2.70;;;18.80;88.10;;;;;;5077080;28;20079;-80
2021/10/23 09:37:59;;;;;;;8.07;2.13;;;19.30;89.60;;;;;;5077708;28;20048;-80
2021/10/23 09:40:29;;;;;;;5.88;1.65;;;19.20;91.00;;;;;;5076986;28;20123;-81
2021/10/23 09:43:09;;;;;;;7.90;2.17;;;19.60;88.20;;;;;;5076090;28;20065;-80
2021/10/23 09:45:37;;;;;;;6.55;1.60;;;21.10;85.40;;;;;;5076834;28;20127;-81
2021/10/23 09:48:09;;;;;;;14.27;1.88;;;22.60;78.30;;;;;;5076498;28;20512;-80
2021/10/23 09:50:36;;;;;;;12.35;1.85;;;23.00;72.50;;;;;;5077016;28;20412;-79
2021/10/23 09:53:10;;;;;;;21.58;2.45;;;21.80;68.30;;;;;;5075503;28;20551;-80
2021/10/23 09:55:52;;;;;;;4.00;1.35;;;21.50;70.70;;;;;;5076327;28;20123;-80
2021/10/23 09:58:23;;;;;;;4.72;1.20;;;21.10;70.80;;;;;;5078526;28;20485;-80
2021/10/23 10:00:51;;;;;;;3.53;1.10;;;20.60;70.20;;;;;;5078795;28;20049;-81
2021/10/23 10:03:19;;;;;;;5.15;1.27;;;19.70;66.50;;;;;;5077547;28;20049;-80
2021/10/23 10:05:59;;;;;;;4.43;0.95;;;18.60;70.20;;;;;;5079236;28;20052;-80
2021/10/23 10:08:27;;;;;;;3.15;0.77;;;18.30;75.20;;;;;;5077354;28;20049;-80
2021/10/23 10:10:55;;;;;;;2.67;0.77;;;17.70;74.80;;;;;;5078923;28;20044;-80
2021/10/23 10:13:26;;;;;;;8.60;1.27;;;16.90;77.50;;;;;;5078994;28;20076;-82
2021/10/23 10:15:58;;;;;;;4.30;0.88;;;15.70;81.00;;;;;;5078597;28;20131;-83
2021/10/23 10:18:25;;;;;;;5.07;1.73;;;15.00;82.20;;;;;;5079797;28;20477;-82
2021/10/23 10:20:57;;;;;;;3.20;1.42;;;14.40;86.40;;;;;;5079435;28;20509;-82
2021/10/23 10:23:35;;;;;;;6.43;1.35;;;13.80;90.30;;;;;;5078979;28;20056;-82
2021/10/23 10:26:14;;;;;;;2.90;1.00;;;13.10;89.90;;;;;;5079335;28;20131;-83
2021/10/23 10:29:14;;;;;;;10.80;1.75;;;12.90;94.70;;;;;;5076010;28;20060;-82
2021/10/23 10:31:59;;;;;;;5.22;1.20;;;13.00;94.00;;;;;;5076620;28;20140;-83
2021/10/23 10:35:01;;;;;;;5.05;1.30;;;14.20;93.20;;;;;;5077342;28;20045;-81
2021/10/23 10:43:00;;;;;;;3.63;1.08;;;13.60;93.00;;;;;;5078644;28;20132;-82
2021/10/23 10:45:41;;;;;;;5.60;1.10;;;13.80;93.30;;;;;;5077105;28;20048;-82
2021/10/23 10:48:26;;;;;;;2.42;0.68;;;14.80;92.80;;;;;;5078340;28;20083;-80
2021/10/23 10:51:12;;;;;;;5.35;1.20;;;14.80;92.30;;;;;;5079052;28;20394;-82
2021/10/23 10:53:51;;;;;;;4.80;1.02;;;14.60;91.00;;;;;;5075150;28;20045;-82
2021/10/23 10:56:18;;;;;;;4.45;1.05;;;14.00;92.10;;;;;;5075394;28;20087;-84
2021/10/23 10:58:55;;;;;;;5.85;1.17;;;13.70;93.10;;;;;;5074888;28;20182;-82
2021/10/23 11:01:30;;;;;;;8.25;1.17;;;13.70;93.50;;;;;;5075434;28;20102;-82
2021/10/23 11:04:07;;;;;;;2.65;0.95;;;13.80;94.00;;;;;;5074819;28;20590;-82
2021/10/23 11:06:34;;;;;;;4.82;1.15;;;14.90;90.80;;;;;;5074718;28;20106;-82
2021/10/23 11:09:16;;;;;;;2.97;1.30;;;15.30;87.50;;;;;;5074280;28;20118;-82
2021/10/23 11:11:45;;;;;;;2.83;0.82;;;15.50;90.90;;;;;;5075357;28;20501;-83
2021/10/23 11:17:13;;;;;;;6.93;1.63;;;15.20;86.00;;;;;;5074940;28;20054;-83
2021/10/23 11:19:42;;;;;;;3.72;1.08;;;14.40;87.90;;;;;;5073341;28;20079;-83
2021/10/23 11:22:15;;;;;;;6.50;1.75;;;14.20;90.80;;;;;;5074008;28;20127;-83
2021/10/23 11:24:43;;;;;;;5.13;1.05;;;13.70;90.70;;;;;;5074135;28;20505;-83
2021/10/23 11:27:23;;;;;;;5.22;1.30;;;13.00;91.50;;;;;;5074291;28;20174;-83
2021/10/23 11:30:08;;;;;;;3.67;1.30;;;12.40;93.10;;;;;;5074004;28;20091;-83
2021/10/23 11:32:41;;;;;;;9.13;1.85;;;11.90;96.30;;;;;;5075228;28;20056;-83
2021/10/23 11:35:08;;;;;;;6.03;1.45;;;11.70;97.50;;;;;;5076139;28;20045;-83
2021/10/23 11:37:36;;;;;;;6.97;3.50;;;11.70;98.10;;;;;;5075270;28;20123;-83
2021/10/23 11:40:04;;;;;;;6.43;2.35;;;12.10;99.10;;;;;;5074751;28;20509;-81
2021/10/23 11:42:34;;;;;;;7.63;2.00;;;12.60;96.60;;;;;;5074579;28;20044;-81
2021/10/23 11:45:11;;;;;;;10.80;2.15;;;12.90;98.70;;;;;;5072944;28;20468;-81
2021/10/23 11:47:58;;;;;;;4.03;1.15;;;13.20;97.30;;;;;;5073236;28;20409;-82
2021/10/23 11:50:38;;;;;;;6.38;1.60;;;13.40;96.60;;;;;;5072960;28;20140;-82
2021/10/23 11:53:30;;;;;;;2.97;1.05;;;13.30;95.90;;;;;;5073143;28;20131;-82
2021/10/23 11:56:08;;;;;;;4.97;1.20;;;13.10;93.80;;;;;;5074008;28;20091;-79
2021/10/23 11:58:37;;;;;;;6.57;1.80;;;12.90;96.50;;;;;;5074524;28;20080;-81
2021/10/23 12:01:08;;;;;;;5.68;1.27;;;12.30;96.10;;;;;;5073716;28;20048;-82
2021/10/23 12:03:59;;;;;;;7.35;1.38;;;12.10;97.70;;;;;;5073048;28;20045;-82
2021/10/23 12:06:37;;;;;;;7.32;1.40;;;12.10;98.00;;;;;;5074577;28;20041;-82
2021/10/23 12:09:19;;;;;;;5.35;1.10;;;12.20;99.90;;;;;;5072970;28;20151;-82
2021/10/23 12:12:02;;;;;;;5.65;1.42;;;12.40;99.90;;;;;;5072931;28;20045;-82
2021/10/23 12:14:29;;;;;;;4.85;1.13;;;12.40;99.90;;;;;;5074072;28;20066;-82
2021/10/23 12:16:57;;;;;;;5.43;1.42;;;12.50;99.90;;;;;;5073029;28;20055;-83
2021/10/23 12:19:34;;;;;;;4.03;0.95;;;12.70;99.00;;;;;;5073304;28;20460;-81
2021/10/23 12:22:04;;;;;;;4.22;1.10;;;12.70;98.30;;;;;;5073360;28;20084;-82
2021/10/23 12:24:34;;;;;;;5.10;1.58;;;12.60;98.80;;;;;;5073218;28;20140;-82
2021/10/23 12:27:24;;;;;;;9.98;3.20;;;12.50;99.20;;;;;;5072950;28;20091;-83
2021/10/23 12:30:00;;;;;;;3.75;0.90;;;11.90;97.90;;;;;;5073185;28;20614;-82
2021/10/23 12:32:26;;;;;;;3.20;1.00;;;11.60;99.00;;;;;;5077006;28;20078;-83
2021/10/23 12:34:59;;;;;;;5.32;1.15;;;11.60;99.90;;;;;;5077711;28;20561;-83
2021/10/23 12:37:26;;;;;;;4.40;1.05;;;11.60;98.30;;;;;;5078350;28;20098;-82
2021/10/23 12:40:21;;;;;;;3.00;1.02;;;11.60;97.90;;;;;;5076462;28;20065;-82
2021/10/23 12:42:53;;;;;;;3.80;0.90;;;11.70;99.10;;;;;;5077057;28;20048;-82
2021/10/23 12:45:23;;;;;;;4.72;0.80;;;11.80;97.20;;;;;;5076942;28;20076;-82
2021/10/23 12:47:52;;;;;;;4.63;0.98;;;12.00;98.10;;;;;;5076546;28;20090;-82
2021/10/23 12:50:22;;;;;;;4.90;0.77;;;12.30;97.30;;;;;;5077690;28;20135;-82
2021/10/23 12:52:51;;;;;;;5.07;0.90;;;12.40;96.10;;;;;;5076139;28;20490;-82
2021/10/23 12:55:19;;;;;;;5.35;1.52;;;12.70;98.50;;;;;;5077574;28;20486;-82
2021/10/23 12:57:46;;;;;;;2.25;0.90;;;12.70;96.60;;;;;;5076371;28;20068;-81
2021/10/23 13:00:14;;;;;;;5.53;1.40;;;12.80;96.80;;;;;;5077710;28;20457;-82
2021/10/23 13:02:42;;;;;;;6.50;1.13;;;13.10;96.60;;;;;;5076396;28;20142;-81
2021/10/23 13:05:11;;;;;;;2.13;0.82;;;13.40;96.00;;;;;;5076664;28;20057;-81
2021/10/23 13:07:38;;;;;;;3.42;0.90;;;13.10;94.20;;;;;;5076028;28;20055;-81